sensor_id;sensor_type;location;lat;lon;timestamp;P1;durP1;ratioP1;P2;durP2;ratioP2
5277;SDS011;2662;51.194;6.614;2022-11-15T00:00:36;12.37;;;7.90;;
5277;SDS011;2662;51.194;6.614;2022-11-15T00:03:03;17.83;;;7.93;;
5277;SDS011;2662;51.194;6.614;2022-11-15T00:05:33;11.73;;;7.80;;
5277;SDS011;2662;51.194;6.614;2022-11-15T00:08:00;9.50;;;7.37;;
5277;SDS011;2662;51.194;6.614;2022-11-15T00:10:27;13.97;;;7.80;;
5277;SDS011;2662;51.194;6.614;2022-11-15T00:12:54;13.50;;;7.30;;
5277;SDS011;2662;51.194;6.614;2022-11-15T00:15:20;18.17;;;7.80;;
5277;SDS011;2662;51.194;6.614;2022-11-15T00:17:49;10.47;;;6.83;;
5277;SDS011;2662;51.194;6.614;2022-11-15T00:20:16;11.17;;;7.30;;
5277;SDS011;2662;51.194;6.614;2022-11-15T00:22:43;11.90;;;7.37;;
5277;SDS011;2662;51.194;6.614;2022-11-15T00:25:10;9.77;;;7.23;;
5277;SDS011;2662;51.194;6.614;2022-11-15T00:27:36;11.30;;;7.30;;
5277;SDS011;2662;51.194;6.614;2022-11-15T00:30:03;13.93;;;7.73;;
5277;SDS011;2662;51.194;6.614;2022-11-15T00:32:31;9.67;;;6.87;;
5277;SDS011;2662;51.194;6.614;2022-11-15T00:34:59;14.57;;;7.30;;
5277;SDS011;2662;51.194;6.614;2022-11-15T00:37:26;13.00;;;6.90;;
5277;SDS011;2662;51.194;6.614;2022-11-15T00:39:52;10.80;;;7.50;;
5277;SDS011;2662;51.194;6.614;2022-11-15T00:42:19;14.90;;;7.87;;
5277;SDS011;2662;51.194;6.614;2022-11-15T00:44:46;10.03;;;7.20;;
5277;SDS011;2662;51.194;6.614;2022-11-15T00:47:12;14.43;;;7.13;;
5277;SDS011;2662;51.194;6.614;2022-11-15T00:49:39;15.43;;;7.53;;
5277;SDS011;2662;51.194;6.614;2022-11-15T00:52:08;11.60;;;7.50;;
5277;SDS011;2662;51.194;6.614;2022-11-15T00:54:34;14.53;;;7.83;;
5277;SDS011;2662;51.194;6.614;2022-11-15T00:57:01;15.33;;;8.10;;
5277;SDS011;2662;51.194;6.614;2022-11-15T00:59:31;11.43;;;7.27;;
5277;SDS011;2662;51.194;6.614;2022-11-15T01:01:57;13.63;;;7.07;;
5277;SDS011;2662;51.194;6.614;2022-11-15T01:04:24;14.07;;;8.00;;
5277;SDS011;2662;51.194;6.614;2022-11-15T01:06:51;14.77;;;8.00;;
5277;SDS011;2662;51.194;6.614;2022-11-15T01:09:19;11.23;;;7.30;;
5277;SDS011;2662;51.194;6.614;2022-11-15T01:11:46;13.17;;;7.30;;
5277;SDS011;2662;51.194;6.614;2022-11-15T01:14:13;13.20;;;7.97;;
5277;SDS011;2662;51.194;6.614;2022-11-15T01:16:40;9.60;;;7.17;;
5277;SDS011;2662;51.194;6.614;2022-11-15T01:19:06;14.10;;;6.37;;
5277;SDS011;2662;51.194;6.614;2022-11-15T01:21:33;12.30;;;7.40;;
5277;SDS011;2662;51.194;6.614;2022-11-15T01:24:00;14.20;;;7.40;;
5277;SDS011;2662;51.194;6.614;2022-11-15T01:26:28;15.20;;;7.60;;
5277;SDS011;2662;51.194;6.614;2022-11-15T01:28:54;14.83;;;7.47;;
5277;SDS011;2662;51.194;6.614;2022-11-15T01:31:21;11.57;;;7.47;;
5277;SDS011;2662;51.194;6.614;2022-11-15T01:33:48;11.37;;;7.10;;
5277;SDS011;2662;51.194;6.614;2022-11-15T01:36:15;12.00;;;7.33;;
5277;SDS011;2662;51.194;6.614;2022-11-15T01:38:43;10.37;;;7.00;;
5277;SDS011;2662;51.194;6.614;2022-11-15T01:41:14;10.40;;;6.23;;
5277;SDS011;2662;51.194;6.614;2022-11-15T01:43:43;11.77;;;7.40;;
5277;SDS011;2662;51.194;6.614;2022-11-15T01:46:18;11.93;;;6.70;;
5277;SDS011;2662;51.194;6.614;2022-11-15T01:48:51;11.70;;;7.00;;
5277;SDS011;2662;51.194;6.614;2022-11-15T01:51:21;11.50;;;6.27;;
5277;SDS011;2662;51.194;6.614;2022-11-15T01:53:52;12.30;;;7.50;;
5277;SDS011;2662;51.194;6.614;2022-11-15T01:56:23;11.43;;;7.00;;
5277;SDS011;2662;51.194;6.614;2022-11-15T01:58:55;9.40;;;7.13;;
5277;SDS011;2662;51.194;6.614;2022-11-15T02:01:24;12.83;;;7.60;;
5277;SDS011;2662;51.194;6.614;2022-11-15T02:03:54;10.23;;;7.13;;
5277;SDS011;2662;51.194;6.614;2022-11-15T02:06:23;9.13;;;6.50;;
5277;SDS011;2662;51.194;6.614;2022-11-15T02:08:50;10.43;;;6.57;;
5277;SDS011;2662;51.194;6.614;2022-11-15T02:11:17;10.97;;;6.87;;
5277;SDS011;2662;51.194;6.614;2022-11-15T02:13:44;10.93;;;6.80;;
5277;SDS011;2662;51.194;6.614;2022-11-15T02:16:15;14.23;;;6.30;;
5277;SDS011;2662;51.194;6.614;2022-11-15T02:18:52;13.10;;;6.70;;
5277;SDS011;2662;51.194;6.614;2022-11-15T02:21:23;13.40;;;7.07;;
5277;SDS011;2662;51.194;6.614;2022-11-15T02:24:06;14.40;;;6.83;;
5277;SDS011;2662;51.194;6.614;2022-11-15T02:30:14;11.97;;;6.63;;
5277;SDS011;2662;51.194;6.614;2022-11-15T02:32:53;11.77;;;7.63;;
5277;SDS011;2662;51.194;6.614;2022-11-15T02:35:27;9.30;;;6.93;;
5277;SDS011;2662;51.194;6.614;2022-11-15T02:37:59;10.10;;;7.23;;
5277;SDS011;2662;51.194;6.614;2022-11-15T02:40:34;16.70;;;7.63;;
5277;SDS011;2662;51.194;6.614;2022-11-15T02:43:08;17.00;;;7.10;;
5277;SDS011;2662;51.194;6.614;2022-11-15T02:45:56;10.07;;;7.00;;
5277;SDS011;2662;51.194;6.614;2022-11-15T02:48:28;10.33;;;6.40;;
5277;SDS011;2662;51.194;6.614;2022-11-15T02:50:57;11.50;;;6.67;;
5277;SDS011;2662;51.194;6.614;2022-11-15T02:53:25;10.23;;;6.60;;
5277;SDS011;2662;51.194;6.614;2022-11-15T02:55:52;14.40;;;7.33;;
5277;SDS011;2662;51.194;6.614;2022-11-15T03:01:24;11.80;;;7.30;;
5277;SDS011;2662;51.194;6.614;2022-11-15T03:04:07;9.40;;;6.60;;
5277;SDS011;2662;51.194;6.614;2022-11-15T03:06:42;12.70;;;7.20;;
5277;SDS011;2662;51.194;6.614;2022-11-15T03:09:13;14.03;;;6.80;;
5277;SDS011;2662;51.194;6.614;2022-11-15T03:11:50;10.23;;;6.83;;
5277;SDS011;2662;51.194;6.614;2022-11-15T03:14:23;18.53;;;7.50;;
5277;SDS011;2662;51.194;6.614;2022-11-15T03:16:57;17.20;;;6.23;;
5277;SDS011;2662;51.194;6.614;2022-11-15T03:19:30;10.87;;;6.30;;
5277;SDS011;2662;51.194;6.614;2022-11-15T03:22:02;10.87;;;6.53;;
5277;SDS011;2662;51.194;6.614;2022-11-15T03:24:33;10.07;;;6.87;;
5277;SDS011;2662;51.194;6.614;2022-11-15T03:27:02;12.60;;;7.00;;
5277;SDS011;2662;51.194;6.614;2022-11-15T03:29:32;12.67;;;7.10;;
5277;SDS011;2662;51.194;6.614;2022-11-15T03:32:03;10.43;;;7.20;;
5277;SDS011;2662;51.194;6.614;2022-11-15T03:34:34;9.10;;;6.43;;
5277;SDS011;2662;51.194;6.614;2022-11-15T03:37:05;11.93;;;7.40;;
5277;SDS011;2662;51.194;6.614;2022-11-15T03:39:33;12.40;;;7.13;;
5277;SDS011;2662;51.194;6.614;2022-11-15T03:42:03;19.23;;;7.90;;
5277;SDS011;2662;51.194;6.614;2022-11-15T03:44:40;10.03;;;5.93;;
5277;SDS011;2662;51.194;6.614;2022-11-15T03:47:15;11.90;;;6.90;;
5277;SDS011;2662;51.194;6.614;2022-11-15T03:49:46;9.23;;;6.33;;
5277;SDS011;2662;51.194;6.614;2022-11-15T03:52:17;9.83;;;6.40;;
5277;SDS011;2662;51.194;6.614;2022-11-15T03:54:48;17.77;;;6.90;;
5277;SDS011;2662;51.194;6.614;2022-11-15T03:57:19;13.07;;;6.90;;
5277;SDS011;2662;51.194;6.614;2022-11-15T03:59:46;15.17;;;7.10;;
5277;SDS011;2662;51.194;6.614;2022-11-15T04:02:14;10.73;;;6.90;;
5277;SDS011;2662;51.194;6.614;2022-11-15T04:04:41;9.73;;;6.67;;
5277;SDS011;2662;51.194;6.614;2022-11-15T04:07:08;11.93;;;6.70;;
5277;SDS011;2662;51.194;6.614;2022-11-15T04:09:34;12.43;;;6.87;;
5277;SDS011;2662;51.194;6.614;2022-11-15T04:12:22;10.90;;;6.43;;
5277;SDS011;2662;51.194;6.614;2022-11-15T04:14:55;9.90;;;5.83;;
5277;SDS011;2662;51.194;6.614;2022-11-15T04:17:34;11.50;;;6.87;;
5277;SDS011;2662;51.194;6.614;2022-11-15T04:20:02;11.63;;;7.23;;
5277;SDS011;2662;51.194;6.614;2022-11-15T04:22:47;9.27;;;6.60;;
5277;SDS011;2662;51.194;6.614;2022-11-15T04:25:31;10.90;;;6.83;;
5277;SDS011;2662;51.194;6.614;2022-11-15T04:27:58;8.00;;;5.67;;
5277;SDS011;2662;51.194;6.614;2022-11-15T04:30:25;9.07;;;6.10;;
5277;SDS011;2662;51.194;6.614;2022-11-15T04:32:53;8.30;;;6.23;;
5277;SDS011;2662;51.194;6.614;2022-11-15T04:35:19;10.60;;;6.53;;
5277;SDS011;2662;51.194;6.614;2022-11-15T04:37:46;10.30;;;6.17;;
5277;SDS011;2662;51.194;6.614;2022-11-15T04:40:12;14.37;;;6.27;;
5277;SDS011;2662;51.194;6.614;2022-11-15T04:42:40;11.30;;;6.10;;
5277;SDS011;2662;51.194;6.614;2022-11-15T04:45:07;15.43;;;6.80;;
5277;SDS011;2662;51.194;6.614;2022-11-15T04:47:34;11.97;;;6.30;;
5277;SDS011;2662;51.194;6.614;2022-11-15T04:50:03;11.60;;;6.80;;
5277;SDS011;2662;51.194;6.614;2022-11-15T04:52:30;15.63;;;6.43;;
5277;SDS011;2662;51.194;6.614;2022-11-15T04:54:57;10.90;;;6.37;;
5277;SDS011;2662;51.194;6.614;2022-11-15T04:57:23;14.13;;;7.03;;
5277;SDS011;2662;51.194;6.614;2022-11-15T04:59:50;9.83;;;5.90;;
5277;SDS011;2662;51.194;6.614;2022-11-15T05:02:17;11.83;;;5.50;;
5277;SDS011;2662;51.194;6.614;2022-11-15T05:04:43;7.70;;;5.63;;
5277;SDS011;2662;51.194;6.614;2022-11-15T05:07:11;11.30;;;6.60;;
5277;SDS011;2662;51.194;6.614;2022-11-15T05:09:37;7.70;;;5.50;;
5277;SDS011;2662;51.194;6.614;2022-11-15T05:12:04;14.83;;;5.90;;
5277;SDS011;2662;51.194;6.614;2022-11-15T05:14:31;7.90;;;5.63;;
5277;SDS011;2662;51.194;6.614;2022-11-15T05:16:58;8.07;;;5.67;;
5277;SDS011;2662;51.194;6.614;2022-11-15T05:19:24;8.40;;;5.63;;
5277;SDS011;2662;51.194;6.614;2022-11-15T05:21:51;7.63;;;5.50;;
5277;SDS011;2662;51.194;6.614;2022-11-15T05:24:19;7.50;;;5.30;;
5277;SDS011;2662;51.194;6.614;2022-11-15T05:26:46;8.53;;;5.47;;
5277;SDS011;2662;51.194;6.614;2022-11-15T05:29:12;9.20;;;5.70;;
5277;SDS011;2662;51.194;6.614;2022-11-15T05:31:39;10.23;;;5.63;;
5277;SDS011;2662;51.194;6.614;2022-11-15T05:34:07;8.00;;;5.57;;
5277;SDS011;2662;51.194;6.614;2022-11-15T05:36:35;8.17;;;5.57;;
5277;SDS011;2662;51.194;6.614;2022-11-15T05:39:04;12.17;;;6.13;;
5277;SDS011;2662;51.194;6.614;2022-11-15T05:41:34;6.57;;;5.30;;
5277;SDS011;2662;51.194;6.614;2022-11-15T05:44:03;11.50;;;5.80;;
5277;SDS011;2662;51.194;6.614;2022-11-15T05:46:33;7.93;;;5.30;;
5277;SDS011;2662;51.194;6.614;2022-11-15T05:49:01;7.60;;;5.13;;
5277;SDS011;2662;51.194;6.614;2022-11-15T05:51:28;8.60;;;4.80;;
5277;SDS011;2662;51.194;6.614;2022-11-15T05:53:56;7.33;;;4.90;;
5277;SDS011;2662;51.194;6.614;2022-11-15T05:56:24;7.77;;;5.50;;
5277;SDS011;2662;51.194;6.614;2022-11-15T05:58:53;6.13;;;5.20;;
5277;SDS011;2662;51.194;6.614;2022-11-15T06:01:21;8.30;;;5.43;;
5277;SDS011;2662;51.194;6.614;2022-11-15T06:03:48;7.07;;;4.80;;
5277;SDS011;2662;51.194;6.614;2022-11-15T06:06:15;9.03;;;5.03;;
5277;SDS011;2662;51.194;6.614;2022-11-15T06:08:41;8.80;;;5.10;;
5277;SDS011;2662;51.194;6.614;2022-11-15T06:11:08;8.27;;;5.13;;
5277;SDS011;2662;51.194;6.614;2022-11-15T06:13:35;9.03;;;5.10;;
5277;SDS011;2662;51.194;6.614;2022-11-15T06:16:03;7.43;;;5.20;;
5277;SDS011;2662;51.194;6.614;2022-11-15T06:18:31;7.53;;;5.50;;
5277;SDS011;2662;51.194;6.614;2022-11-15T06:20:59;8.20;;;4.97;;
5277;SDS011;2662;51.194;6.614;2022-11-15T06:23:26;7.50;;;4.70;;
5277;SDS011;2662;51.194;6.614;2022-11-15T06:25:57;6.80;;;4.90;;
5277;SDS011;2662;51.194;6.614;2022-11-15T06:28:24;7.13;;;4.47;;
5277;SDS011;2662;51.194;6.614;2022-11-15T06:30:50;9.47;;;4.80;;
5277;SDS011;2662;51.194;6.614;2022-11-15T06:33:18;8.37;;;5.30;;
5277;SDS011;2662;51.194;6.614;2022-11-15T06:35:45;7.60;;;4.87;;
5277;SDS011;2662;51.194;6.614;2022-11-15T06:38:12;6.90;;;4.40;;
5277;SDS011;2662;51.194;6.614;2022-11-15T06:40:39;7.73;;;5.30;;
5277;SDS011;2662;51.194;6.614;2022-11-15T06:43:06;5.13;;;4.00;;
5277;SDS011;2662;51.194;6.614;2022-11-15T06:45:33;5.67;;;4.30;;
5277;SDS011;2662;51.194;6.614;2022-11-15T06:47:59;5.67;;;4.10;;
5277;SDS011;2662;51.194;6.614;2022-11-15T06:50:28;5.13;;;4.27;;
5277;SDS011;2662;51.194;6.614;2022-11-15T06:52:54;4.80;;;3.83;;
5277;SDS011;2662;51.194;6.614;2022-11-15T06:55:26;5.53;;;3.40;;
5277;SDS011;2662;51.194;6.614;2022-11-15T06:57:52;9.57;;;3.43;;
5277;SDS011;2662;51.194;6.614;2022-11-15T07:00:20;3.90;;;3.10;;
5277;SDS011;2662;51.194;6.614;2022-11-15T07:02:47;3.23;;;2.70;;
5277;SDS011;2662;51.194;6.614;2022-11-15T07:05:14;2.83;;;2.60;;
5277;SDS011;2662;51.194;6.614;2022-11-15T07:07:43;3.00;;;2.70;;
5277;SDS011;2662;51.194;6.614;2022-11-15T07:10:16;3.43;;;2.97;;
5277;SDS011;2662;51.194;6.614;2022-11-15T07:12:46;2.50;;;2.30;;
5277;SDS011;2662;51.194;6.614;2022-11-15T07:15:13;4.57;;;2.63;;
5277;SDS011;2662;51.194;6.614;2022-11-15T07:17:40;2.53;;;2.33;;
5277;SDS011;2662;51.194;6.614;2022-11-15T07:20:07;2.70;;;2.20;;
5277;SDS011;2662;51.194;6.614;2022-11-15T07:22:34;2.67;;;1.77;;
5277;SDS011;2662;51.194;6.614;2022-11-15T07:25:02;4.17;;;1.33;;
5277;SDS011;2662;51.194;6.614;2022-11-15T07:27:29;1.27;;;1.17;;
5277;SDS011;2662;51.194;6.614;2022-11-15T07:29:56;3.13;;;0.90;;
5277;SDS011;2662;51.194;6.614;2022-11-15T07:32:23;2.80;;;1.00;;
5277;SDS011;2662;51.194;6.614;2022-11-15T07:34:50;3.47;;;1.00;;
5277;SDS011;2662;51.194;6.614;2022-11-15T07:37:16;0.97;;;0.97;;
5277;SDS011;2662;51.194;6.614;2022-11-15T07:39:43;1.10;;;0.87;;
5277;SDS011;2662;51.194;6.614;2022-11-15T07:42:11;1.33;;;0.80;;
5277;SDS011;2662;51.194;6.614;2022-11-15T07:44:55;0.80;;;0.80;;
5277;SDS011;2662;51.194;6.614;2022-11-15T07:47:22;5.33;;;0.73;;
5277;SDS011;2662;51.194;6.614;2022-11-15T07:49:49;0.60;;;0.60;;
5277;SDS011;2662;51.194;6.614;2022-11-15T07:52:17;1.60;;;0.70;;
5277;SDS011;2662;51.194;6.614;2022-11-15T07:54:43;1.10;;;0.70;;
5277;SDS011;2662;51.194;6.614;2022-11-15T07:57:11;2.93;;;0.80;;
5277;SDS011;2662;51.194;6.614;2022-11-15T07:59:38;0.90;;;0.60;;
5277;SDS011;2662;51.194;6.614;2022-11-15T08:02:05;4.20;;;0.80;;
5277;SDS011;2662;51.194;6.614;2022-11-15T08:04:31;0.67;;;0.60;;
5277;SDS011;2662;51.194;6.614;2022-11-15T08:06:58;4.53;;;0.70;;
5277;SDS011;2662;51.194;6.614;2022-11-15T08:09:25;1.10;;;1.00;;
5277;SDS011;2662;51.194;6.614;2022-11-15T08:11:51;0.70;;;0.70;;
5277;SDS011;2662;51.194;6.614;2022-11-15T08:14:20;2.27;;;1.10;;
5277;SDS011;2662;51.194;6.614;2022-11-15T08:16:47;1.27;;;1.13;;
5277;SDS011;2662;51.194;6.614;2022-11-15T08:19:14;5.23;;;1.33;;
5277;SDS011;2662;51.194;6.614;2022-11-15T08:21:40;2.93;;;0.77;;
5277;SDS011;2662;51.194;6.614;2022-11-15T08:24:08;1.20;;;1.10;;
5277;SDS011;2662;51.194;6.614;2022-11-15T08:26:36;2.73;;;1.30;;
5277;SDS011;2662;51.194;6.614;2022-11-15T08:29:02;3.40;;;1.30;;
5277;SDS011;2662;51.194;6.614;2022-11-15T08:31:31;4.27;;;1.10;;
5277;SDS011;2662;51.194;6.614;2022-11-15T08:33:57;4.30;;;1.60;;
5277;SDS011;2662;51.194;6.614;2022-11-15T08:36:24;1.63;;;1.40;;
5277;SDS011;2662;51.194;6.614;2022-11-15T08:38:51;3.20;;;1.80;;
5277;SDS011;2662;51.194;6.614;2022-11-15T08:41:19;11.63;;;1.60;;
5277;SDS011;2662;51.194;6.614;2022-11-15T08:43:52;7.90;;;1.90;;
5277;SDS011;2662;51.194;6.614;2022-11-15T08:46:19;3.00;;;1.47;;
5277;SDS011;2662;51.194;6.614;2022-11-15T08:48:47;4.40;;;1.70;;
5277;SDS011;2662;51.194;6.614;2022-11-15T08:51:14;3.80;;;1.77;;
5277;SDS011;2662;51.194;6.614;2022-11-15T08:53:41;3.03;;;1.67;;
5277;SDS011;2662;51.194;6.614;2022-11-15T08:56:08;2.20;;;1.50;;
5277;SDS011;2662;51.194;6.614;2022-11-15T08:58:35;2.03;;;1.63;;
5277;SDS011;2662;51.194;6.614;2022-11-15T09:01:03;5.20;;;1.80;;
5277;SDS011;2662;51.194;6.614;2022-11-15T09:03:30;2.30;;;1.60;;
5277;SDS011;2662;51.194;6.614;2022-11-15T09:05:59;2.57;;;1.27;;
5277;SDS011;2662;51.194;6.614;2022-11-15T09:08:29;4.40;;;1.10;;
5277;SDS011;2662;51.194;6.614;2022-11-15T09:10:56;7.33;;;1.30;;
5277;SDS011;2662;51.194;6.614;2022-11-15T09:13:23;1.20;;;0.83;;
5277;SDS011;2662;51.194;6.614;2022-11-15T09:15:49;3.83;;;1.00;;
5277;SDS011;2662;51.194;6.614;2022-11-15T09:18:16;1.33;;;0.90;;
5277;SDS011;2662;51.194;6.614;2022-11-15T09:20:43;2.00;;;0.70;;
5277;SDS011;2662;51.194;6.614;2022-11-15T09:23:11;1.83;;;0.80;;
5277;SDS011;2662;51.194;6.614;2022-11-15T09:25:38;2.57;;;1.03;;
5277;SDS011;2662;51.194;6.614;2022-11-15T09:28:05;1.63;;;1.20;;
5277;SDS011;2662;51.194;6.614;2022-11-15T09:30:32;1.23;;;1.00;;
5277;SDS011;2662;51.194;6.614;2022-11-15T09:32:59;2.77;;;1.30;;
5277;SDS011;2662;51.194;6.614;2022-11-15T09:35:32;5.60;;;1.60;;
5277;SDS011;2662;51.194;6.614;2022-11-15T09:37:59;3.93;;;1.53;;
5277;SDS011;2662;51.194;6.614;2022-11-15T09:40:29;4.97;;;1.43;;
5277;SDS011;2662;51.194;6.614;2022-11-15T09:43:05;4.80;;;2.20;;
5277;SDS011;2662;51.194;6.614;2022-11-15T09:45:47;5.53;;;1.67;;
5277;SDS011;2662;51.194;6.614;2022-11-15T09:48:27;6.23;;;1.70;;
5277;SDS011;2662;51.194;6.614;2022-11-15T09:51:04;4.30;;;1.50;;
5277;SDS011;2662;51.194;6.614;2022-11-15T09:53:36;1.93;;;1.30;;
5277;SDS011;2662;51.194;6.614;2022-11-15T09:56:12;2.03;;;1.20;;
5277;SDS011;2662;51.194;6.614;2022-11-15T09:58:43;2.67;;;1.10;;
5277;SDS011;2662;51.194;6.614;2022-11-15T10:01:17;3.13;;;1.53;;
5277;SDS011;2662;51.194;6.614;2022-11-15T10:03:55;4.70;;;1.20;;
5277;SDS011;2662;51.194;6.614;2022-11-15T10:06:24;4.07;;;1.10;;
5277;SDS011;2662;51.194;6.614;2022-11-15T10:08:55;5.00;;;1.53;;
5277;SDS011;2662;51.194;6.614;2022-11-15T10:11:30;1.10;;;1.00;;
5277;SDS011;2662;51.194;6.614;2022-11-15T10:13:59;2.63;;;1.43;;
5277;SDS011;2662;51.194;6.614;2022-11-15T10:16:33;2.37;;;1.40;;
5277;SDS011;2662;51.194;6.614;2022-11-15T10:19:21;1.10;;;0.90;;
5277;SDS011;2662;51.194;6.614;2022-11-15T10:21:55;1.53;;;1.20;;
5277;SDS011;2662;51.194;6.614;2022-11-15T10:24:32;1.50;;;0.90;;
5277;SDS011;2662;51.194;6.614;2022-11-15T10:27:06;1.00;;;0.90;;
5277;SDS011;2662;51.194;6.614;2022-11-15T10:29:36;2.00;;;1.23;;
5277;SDS011;2662;51.194;6.614;2022-11-15T10:32:09;2.60;;;0.90;;
5277;SDS011;2662;51.194;6.614;2022-11-15T10:34:37;1.10;;;0.80;;
5277;SDS011;2662;51.194;6.614;2022-11-15T10:37:04;5.93;;;1.40;;
5277;SDS011;2662;51.194;6.614;2022-11-15T10:39:30;2.50;;;1.00;;
5277;SDS011;2662;51.194;6.614;2022-11-15T10:41:58;3.53;;;1.60;;
5277;SDS011;2662;51.194;6.614;2022-11-15T10:44:43;4.53;;;1.10;;
5277;SDS011;2662;51.194;6.614;2022-11-15T10:47:24;1.37;;;1.00;;
5277;SDS011;2662;51.194;6.614;2022-11-15T10:49:58;4.10;;;1.30;;
5277;SDS011;2662;51.194;6.614;2022-11-15T10:52:26;1.67;;;1.23;;
5277;SDS011;2662;51.194;6.614;2022-11-15T10:54:55;3.00;;;1.13;;
5277;SDS011;2662;51.194;6.614;2022-11-15T10:57:27;5.17;;;1.23;;
5277;SDS011;2662;51.194;6.614;2022-11-15T10:59:57;1.30;;;1.07;;
5277;SDS011;2662;51.194;6.614;2022-11-15T11:02:30;3.83;;;1.40;;
5277;SDS011;2662;51.194;6.614;2022-11-15T11:04:59;2.83;;;1.23;;
5277;SDS011;2662;51.194;6.614;2022-11-15T11:07:27;2.37;;;1.03;;
5277;SDS011;2662;51.194;6.614;2022-11-15T11:09:59;1.20;;;1.10;;
5277;SDS011;2662;51.194;6.614;2022-11-15T11:12:31;1.83;;;1.30;;
5277;SDS011;2662;51.194;6.614;2022-11-15T11:14:59;7.20;;;1.20;;
5277;SDS011;2662;51.194;6.614;2022-11-15T11:17:42;2.20;;;1.30;;
5277;SDS011;2662;51.194;6.614;2022-11-15T11:20:18;3.23;;;0.87;;
5277;SDS011;2662;51.194;6.614;2022-11-15T11:22:56;4.37;;;1.20;;
5277;SDS011;2662;51.194;6.614;2022-11-15T11:25:30;3.70;;;0.90;;
5277;SDS011;2662;51.194;6.614;2022-11-15T11:28:10;2.27;;;1.17;;
5277;SDS011;2662;51.194;6.614;2022-11-15T11:30:55;3.90;;;1.23;;
5277;SDS011;2662;51.194;6.614;2022-11-15T11:33:27;4.20;;;1.10;;
5277;SDS011;2662;51.194;6.614;2022-11-15T11:36:01;1.50;;;0.77;;
5277;SDS011;2662;51.194;6.614;2022-11-15T11:38:44;2.70;;;0.73;;
5277;SDS011;2662;51.194;6.614;2022-11-15T11:41:20;2.53;;;1.00;;
5277;SDS011;2662;51.194;6.614;2022-11-15T11:44:38;3.77;;;1.00;;
5277;SDS011;2662;51.194;6.614;2022-11-15T11:47:14;2.97;;;0.60;;
5277;SDS011;2662;51.194;6.614;2022-11-15T11:49:48;1.80;;;0.70;;
5277;SDS011;2662;51.194;6.614;2022-11-15T11:52:18;5.20;;;1.33;;
5277;SDS011;2662;51.194;6.614;2022-11-15T11:54:54;1.53;;;0.80;;
5277;SDS011;2662;51.194;6.614;2022-11-15T11:57:32;1.87;;;0.90;;
5277;SDS011;2662;51.194;6.614;2022-11-15T12:00:12;14.43;;;1.27;;
5277;SDS011;2662;51.194;6.614;2022-11-15T12:02:44;3.50;;;1.10;;
5277;SDS011;2662;51.194;6.614;2022-11-15T12:05:19;2.03;;;0.70;;
5277;SDS011;2662;51.194;6.614;2022-11-15T12:07:53;1.17;;;0.70;;
5277;SDS011;2662;51.194;6.614;2022-11-15T12:10:28;1.83;;;0.87;;
5277;SDS011;2662;51.194;6.614;2022-11-15T12:12:58;1.83;;;0.90;;
5277;SDS011;2662;51.194;6.614;2022-11-15T12:15:32;3.53;;;0.70;;
5277;SDS011;2662;51.194;6.614;2022-11-15T12:18:03;4.00;;;1.20;;
5277;SDS011;2662;51.194;6.614;2022-11-15T12:20:32;3.50;;;0.87;;
5277;SDS011;2662;51.194;6.614;2022-11-15T12:23:04;0.80;;;0.77;;
5277;SDS011;2662;51.194;6.614;2022-11-15T12:25:35;2.90;;;1.03;;
5277;SDS011;2662;51.194;6.614;2022-11-15T12:28:12;1.33;;;0.60;;
5277;SDS011;2662;51.194;6.614;2022-11-15T12:30:45;5.83;;;0.80;;
5277;SDS011;2662;51.194;6.614;2022-11-15T12:36:02;5.70;;;1.13;;
5277;SDS011;2662;51.194;6.614;2022-11-15T12:41:19;3.17;;;0.70;;
5277;SDS011;2662;51.194;6.614;2022-11-15T12:43:46;2.67;;;0.83;;
5277;SDS011;2662;51.194;6.614;2022-11-15T12:46:20;0.83;;;0.73;;
5277;SDS011;2662;51.194;6.614;2022-11-15T12:48:53;2.93;;;1.03;;
5277;SDS011;2662;51.194;6.614;2022-11-15T12:51:22;2.73;;;1.10;;
5277;SDS011;2662;51.194;6.614;2022-11-15T12:54:50;5.10;;;0.90;;
5277;SDS011;2662;51.194;6.614;2022-11-15T12:57:31;4.87;;;1.13;;
5277;SDS011;2662;51.194;6.614;2022-11-15T13:03:16;1.03;;;0.70;;
5277;SDS011;2662;51.194;6.614;2022-11-15T13:06:05;3.23;;;0.90;;
5277;SDS011;2662;51.194;6.614;2022-11-15T13:08:47;1.07;;;0.70;;
5277;SDS011;2662;51.194;6.614;2022-11-15T13:22:59;2.30;;;0.60;;
5277;SDS011;2662;51.194;6.614;2022-11-15T13:25:39;2.70;;;0.90;;
5277;SDS011;2662;51.194;6.614;2022-11-15T13:28:20;5.00;;;0.77;;
5277;SDS011;2662;51.194;6.614;2022-11-15T13:30:53;3.40;;;0.90;;
5277;SDS011;2662;51.194;6.614;2022-11-15T13:33:22;2.03;;;1.00;;
5277;SDS011;2662;51.194;6.614;2022-11-15T13:35:52;7.13;;;0.90;;
5277;SDS011;2662;51.194;6.614;2022-11-15T13:38:25;1.47;;;0.70;;
5277;SDS011;2662;51.194;6.614;2022-11-15T13:40:53;2.63;;;0.77;;
5277;SDS011;2662;51.194;6.614;2022-11-15T13:43:28;4.37;;;1.03;;
5277;SDS011;2662;51.194;6.614;2022-11-15T13:46:07;2.87;;;1.07;;
5277;SDS011;2662;51.194;6.614;2022-11-15T13:48:37;3.53;;;1.10;;
5277;SDS011;2662;51.194;6.614;2022-11-15T13:51:09;5.23;;;1.07;;
5277;SDS011;2662;51.194;6.614;2022-11-15T13:53:42;1.37;;;0.90;;
5277;SDS011;2662;51.194;6.614;2022-11-15T13:56:12;1.70;;;1.00;;
5277;SDS011;2662;51.194;6.614;2022-11-15T13:58:40;6.73;;;1.20;;
5277;SDS011;2662;51.194;6.614;2022-11-15T14:01:11;4.67;;;1.00;;
5277;SDS011;2662;51.194;6.614;2022-11-15T14:03:46;2.60;;;1.00;;
5277;SDS011;2662;51.194;6.614;2022-11-15T14:06:21;2.00;;;0.77;;
5277;SDS011;2662;51.194;6.614;2022-11-15T14:09:00;2.17;;;0.93;;
5277;SDS011;2662;51.194;6.614;2022-11-15T14:11:29;6.93;;;1.03;;
5277;SDS011;2662;51.194;6.614;2022-11-15T14:14:02;11.93;;;1.20;;
5277;SDS011;2662;51.194;6.614;2022-11-15T14:16:38;3.20;;;1.27;;
5277;SDS011;2662;51.194;6.614;2022-11-15T14:19:06;3.37;;;1.73;;
5277;SDS011;2662;51.194;6.614;2022-11-15T14:21:37;1.67;;;1.00;;
5277;SDS011;2662;51.194;6.614;2022-11-15T14:24:24;4.43;;;1.10;;
5277;SDS011;2662;51.194;6.614;2022-11-15T14:26:57;3.43;;;1.20;;
5277;SDS011;2662;51.194;6.614;2022-11-15T14:29:46;4.30;;;1.20;;
5277;SDS011;2662;51.194;6.614;2022-11-15T14:32:14;3.13;;;1.10;;
5277;SDS011;2662;51.194;6.614;2022-11-15T14:34:42;2.20;;;1.10;;
5277;SDS011;2662;51.194;6.614;2022-11-15T14:37:16;3.07;;;1.37;;
5277;SDS011;2662;51.194;6.614;2022-11-15T14:39:47;4.30;;;1.50;;
5277;SDS011;2662;51.194;6.614;2022-11-15T14:42:13;2.23;;;1.30;;
5277;SDS011;2662;51.194;6.614;2022-11-15T14:44:40;4.23;;;1.90;;
5277;SDS011;2662;51.194;6.614;2022-11-15T14:47:07;3.90;;;1.40;;
5277;SDS011;2662;51.194;6.614;2022-11-15T14:49:34;2.13;;;1.90;;
5277;SDS011;2662;51.194;6.614;2022-11-15T14:52:00;2.90;;;1.90;;
5277;SDS011;2662;51.194;6.614;2022-11-15T14:54:29;5.57;;;1.80;;
5277;SDS011;2662;51.194;6.614;2022-11-15T14:56:55;1.73;;;1.63;;
5277;SDS011;2662;51.194;6.614;2022-11-15T14:59:22;2.03;;;1.70;;
5277;SDS011;2662;51.194;6.614;2022-11-15T15:01:49;3.13;;;1.77;;
5277;SDS011;2662;51.194;6.614;2022-11-15T15:04:15;2.80;;;1.50;;
5277;SDS011;2662;51.194;6.614;2022-11-15T15:06:42;1.83;;;1.73;;
5277;SDS011;2662;51.194;6.614;2022-11-15T15:09:09;1.90;;;1.73;;
5277;SDS011;2662;51.194;6.614;2022-11-15T15:11:37;2.23;;;2.03;;
5277;SDS011;2662;51.194;6.614;2022-11-15T15:14:03;5.13;;;2.50;;
5277;SDS011;2662;51.194;6.614;2022-11-15T15:16:30;5.00;;;2.20;;
5277;SDS011;2662;51.194;6.614;2022-11-15T15:18:57;1.57;;;1.40;;
5277;SDS011;2662;51.194;6.614;2022-11-15T15:21:24;3.23;;;2.07;;
5277;SDS011;2662;51.194;6.614;2022-11-15T15:23:52;1.97;;;1.80;;
5277;SDS011;2662;51.194;6.614;2022-11-15T15:26:20;2.10;;;2.00;;
5277;SDS011;2662;51.194;6.614;2022-11-15T15:28:48;4.20;;;2.40;;
5277;SDS011;2662;51.194;6.614;2022-11-15T15:31:16;2.97;;;1.70;;
5277;SDS011;2662;51.194;6.614;2022-11-15T15:33:44;1.93;;;1.73;;
5277;SDS011;2662;51.194;6.614;2022-11-15T15:36:10;3.50;;;1.90;;
5277;SDS011;2662;51.194;6.614;2022-11-15T15:38:38;8.30;;;1.80;;
5277;SDS011;2662;51.194;6.614;2022-11-15T15:41:08;2.23;;;1.90;;
5277;SDS011;2662;51.194;6.614;2022-11-15T15:43:36;5.03;;;3.07;;
5277;SDS011;2662;51.194;6.614;2022-11-15T15:46:04;4.77;;;2.13;;
5277;SDS011;2662;51.194;6.614;2022-11-15T15:48:33;3.87;;;1.70;;
5277;SDS011;2662;51.194;6.614;2022-11-15T15:51:02;3.00;;;1.70;;
5277;SDS011;2662;51.194;6.614;2022-11-15T15:53:29;2.57;;;2.03;;
5277;SDS011;2662;51.194;6.614;2022-11-15T15:55:56;2.13;;;1.80;;
5277;SDS011;2662;51.194;6.614;2022-11-15T15:58:22;5.80;;;2.03;;